createdAt,value
2023-05-10T00:00:10.094Z,12.63
2023-05-10T00:02:36.897Z,12.88
2023-05-10T00:05:03.740Z,12.63
2023-05-10T00:07:30.181Z,14.18
2023-05-10T00:09:56.603Z,13.85
2023-05-10T00:12:23.141Z,14.90
2023-05-10T00:14:49.503Z,14.57
2023-05-10T00:17:16.044Z,14.05
2023-05-10T00:19:42.483Z,15.00
2023-05-10T00:22:08.909Z,15.05
2023-05-10T00:24:35.476Z,15.52
2023-05-10T00:27:01.937Z,15.57
2023-05-10T00:29:29.327Z,17.10
2023-05-10T00:31:55.825Z,18.48
2023-05-10T00:34:22.275Z,17.05
2023-05-10T00:36:48.828Z,19.30
2023-05-10T00:39:15.402Z,18.50
2023-05-10T00:41:41.789Z,18.40
2023-05-10T00:44:08.251Z,17.90
2023-05-10T00:46:35.465Z,19.98
2023-05-10T00:49:02.159Z,19.65
2023-05-10T00:51:28.836Z,18.35
2023-05-10T00:53:57.000Z,20.98
2023-05-10T00:56:25.382Z,19.52
2023-05-10T00:58:51.982Z,20.38
2023-05-10T01:01:18.505Z,21.05
2023-05-10T01:03:45.380Z,20.08
2023-05-10T01:06:12.263Z,20.17
2023-05-10T01:08:38.799Z,21.20
2023-05-10T01:11:05.318Z,21.65
2023-05-10T01:13:37.154Z,19.98
2023-05-10T01:16:04.438Z,21.85
2023-05-10T01:18:34.066Z,21.10
2023-05-10T01:21:13.216Z,21.77
2023-05-10T01:24:18.625Z,20.83
2023-05-10T01:26:51.648Z,20.88
2023-05-10T01:30:14.637Z,20.40
2023-05-10T01:32:58.784Z,20.58
2023-05-10T01:35:28.309Z,18.73
2023-05-10T01:38:16.302Z,20.48
2023-05-10T01:41:03.229Z,21.15
2023-05-10T01:43:37.994Z,19.20
2023-05-10T01:46:11.960Z,19.88
2023-05-10T01:48:48.491Z,20.65
2023-05-10T01:51:23.899Z,22.00
2023-05-10T01:53:52.655Z,18.67
2023-05-10T01:56:24.981Z,20.23
2023-05-10T01:58:52.812Z,20.80
2023-05-10T02:01:22.475Z,20.92
2023-05-10T02:03:51.897Z,21.38
2023-05-10T02:06:23.041Z,21.85
2023-05-10T02:08:51.477Z,21.45
2023-05-10T02:11:19.350Z,22.48
2023-05-10T02:13:48.358Z,21.20
2023-05-10T02:16:17.247Z,22.05
2023-05-10T02:18:44.141Z,21.38
2023-05-10T02:21:11.822Z,20.65
2023-05-10T02:23:38.959Z,22.90
2023-05-10T02:26:07.194Z,21.48
2023-05-10T02:28:36.091Z,21.35
2023-05-10T02:31:03.553Z,21.35
2023-05-10T02:33:32.517Z,20.70
2023-05-10T02:36:00.003Z,21.60
2023-05-10T02:38:27.770Z,21.30
2023-05-10T02:40:55.052Z,22.17
2023-05-10T02:43:24.110Z,20.90
2023-05-10T02:45:50.741Z,22.83
2023-05-10T02:48:17.776Z,22.77
2023-05-10T02:50:46.185Z,21.75
2023-05-10T02:53:17.422Z,23.95
2023-05-10T02:55:50.148Z,23.13
2023-05-10T02:58:16.570Z,23.80
2023-05-10T03:00:42.955Z,23.38
2023-05-10T03:03:09.410Z,22.77
2023-05-10T03:05:35.965Z,23.73
2023-05-10T03:08:05.093Z,23.80
2023-05-10T03:10:33.486Z,26.42
2023-05-10T03:13:17.537Z,26.67
2023-05-10T03:15:57.836Z,24.02
2023-05-10T03:18:30.576Z,26.40
2023-05-10T03:21:02.716Z,26.13
2023-05-10T03:23:36.744Z,23.20
2023-05-10T03:26:03.907Z,24.20
2023-05-10T03:28:31.621Z,24.45
2023-05-10T03:30:59.842Z,22.95
2023-05-10T03:33:26.367Z,23.45
2023-05-10T03:35:52.999Z,24.17
2023-05-10T03:38:19.465Z,24.00
2023-05-10T03:40:46.034Z,23.02
2023-05-10T03:43:12.372Z,22.73
2023-05-10T03:45:38.880Z,23.10
2023-05-10T03:48:06.073Z,23.50
2023-05-10T03:50:32.638Z,23.02
2023-05-10T03:52:59.115Z,22.80
2023-05-10T03:55:25.752Z,24.25
2023-05-10T03:57:52.171Z,22.95
2023-05-10T04:00:18.953Z,22.80
2023-05-10T04:02:46.334Z,25.27
2023-05-10T04:05:13.591Z,22.88
2023-05-10T04:07:40.255Z,22.80
2023-05-10T04:10:07.378Z,23.38
2023-05-10T04:12:33.823Z,21.55
2023-05-10T04:15:00.404Z,24.10
2023-05-10T04:17:26.821Z,23.58
2023-05-10T04:19:55.558Z,22.17
2023-05-10T04:22:22.008Z,22.33
2023-05-10T04:24:48.419Z,23.00
2023-05-10T04:27:15.286Z,22.30
2023-05-10T04:29:42.460Z,23.83
2023-05-10T04:32:09.009Z,22.88
2023-05-10T04:34:35.404Z,21.92
2023-05-10T04:37:01.959Z,21.92
2023-05-10T04:39:28.371Z,23.27
2023-05-10T04:41:54.784Z,21.40
2023-05-10T04:44:21.218Z,20.88
2023-05-10T04:46:47.784Z,23.02
2023-05-10T04:49:15.281Z,22.90
2023-05-10T04:51:41.718Z,22.40
2023-05-10T04:54:08.105Z,22.35
2023-05-10T04:56:34.809Z,21.73
2023-05-10T04:59:01.416Z,23.45
2023-05-10T05:01:28.048Z,23.30
2023-05-10T05:03:54.748Z,23.85
2023-05-10T05:06:25.806Z,24.08
2023-05-10T05:08:52.436Z,23.50
2023-05-10T05:11:18.988Z,22.90
2023-05-10T05:13:45.457Z,22.55
2023-05-10T05:16:12.418Z,23.25
2023-05-10T05:18:39.225Z,22.42
2023-05-10T05:21:16.070Z,23.52
2023-05-10T05:23:42.479Z,23.10
2023-05-10T05:26:09.304Z,25.42
2023-05-10T05:28:38.156Z,23.63
2023-05-10T05:31:05.674Z,23.77
2023-05-10T05:33:32.347Z,24.60
2023-05-10T05:36:01.736Z,25.05
2023-05-10T05:38:28.135Z,23.42
2023-05-10T05:40:54.487Z,23.73
2023-05-10T05:43:20.817Z,23.27
2023-05-10T05:45:47.328Z,23.30
2023-05-10T05:48:13.735Z,21.75
2023-05-10T05:50:40.114Z,21.77
2023-05-10T05:53:06.536Z,23.85
2023-05-10T05:55:33.100Z,23.10
2023-05-10T05:57:59.588Z,24.52
2023-05-10T06:00:26.781Z,22.40
2023-05-10T06:02:53.336Z,24.13
2023-05-10T06:05:21.170Z,21.65
2023-05-10T06:07:47.613Z,19.58
2023-05-10T06:10:14.186Z,18.55
2023-05-10T06:12:40.648Z,23.45
2023-05-10T06:15:07.738Z,20.75
2023-05-10T06:17:34.235Z,22.20
2023-05-10T06:20:00.675Z,23.55
2023-05-10T06:22:27.082Z,21.85
2023-05-10T06:24:53.689Z,21.45
2023-05-10T06:27:20.098Z,21.80
2023-05-10T06:29:46.526Z,20.67
2023-05-10T06:32:12.915Z,20.58
2023-05-10T06:34:39.339Z,20.15
2023-05-10T06:37:05.882Z,22.10
2023-05-10T06:39:32.265Z,20.45
2023-05-10T06:41:58.697Z,19.67
2023-05-10T06:44:25.150Z,17.88
2023-05-10T06:46:53.517Z,16.83
2023-05-10T06:49:20.055Z,16.63
2023-05-10T06:51:46.488Z,17.33
2023-05-10T06:54:12.841Z,16.92
2023-05-10T06:56:39.438Z,14.52
2023-05-10T06:59:05.970Z,14.75
2023-05-10T07:01:32.406Z,14.73
2023-05-10T07:03:58.857Z,12.88
2023-05-10T07:06:33.306Z,13.27
2023-05-10T07:09:01.324Z,12.32
2023-05-10T07:11:27.952Z,12.38
2023-05-10T07:13:54.293Z,11.68
2023-05-10T07:16:20.957Z,11.15
2023-05-10T07:18:47.362Z,10.70
2023-05-10T07:21:13.888Z,9.77
2023-05-10T07:23:41.311Z,8.40
2023-05-10T07:26:08.694Z,9.48
2023-05-10T07:28:37.638Z,8.60
2023-05-10T07:31:04.340Z,9.48
2023-05-10T07:33:30.741Z,8.40
2023-05-10T07:35:57.420Z,8.98
2023-05-10T07:38:24.351Z,8.45
2023-05-10T07:40:50.717Z,8.85
2023-05-10T07:43:17.146Z,9.10
2023-05-10T07:45:44.189Z,7.95
2023-05-10T07:48:10.892Z,8.30
2023-05-10T07:50:37.389Z,9.25
2023-05-10T07:53:03.789Z,9.20
2023-05-10T07:55:30.626Z,8.40
2023-05-10T07:57:57.749Z,7.68
2023-05-10T08:00:24.109Z,8.50
2023-05-10T08:02:50.678Z,8.80
2023-05-10T08:05:17.435Z,7.03
2023-05-10T08:07:44.047Z,8.40
2023-05-10T08:10:12.126Z,6.63
2023-05-10T08:12:39.266Z,8.93
2023-05-10T08:15:06.554Z,8.07
2023-05-10T08:17:33.502Z,7.90
2023-05-10T08:19:59.954Z,8.70
2023-05-10T08:22:27.031Z,8.52
2023-05-10T08:24:53.410Z,7.82
2023-05-10T08:27:19.856Z,8.38
2023-05-10T08:29:50.093Z,8.52
2023-05-10T08:32:16.991Z,9.40
2023-05-10T08:34:43.467Z,8.38
2023-05-10T08:37:11.452Z,10.35
2023-05-10T08:39:38.453Z,10.02
2023-05-10T08:42:05.683Z,8.98
2023-05-10T08:44:35.175Z,9.27
2023-05-10T08:47:05.609Z,9.10
2023-05-10T08:49:33.745Z,9.68
2023-05-10T08:52:04.564Z,9.30
2023-05-10T08:54:33.049Z,9.32
2023-05-10T08:56:59.599Z,10.00
2023-05-10T08:59:26.194Z,8.95
2023-05-10T09:01:54.902Z,9.27
2023-05-10T09:04:21.964Z,9.15
2023-05-10T09:06:48.888Z,9.13
2023-05-10T09:09:17.086Z,10.98
2023-05-10T09:11:44.462Z,8.88
2023-05-10T09:14:13.331Z,9.20
2023-05-10T09:16:40.761Z,7.72
2023-05-10T09:19:08.301Z,8.93
2023-05-10T09:21:39.071Z,7.70
2023-05-10T09:26:32.846Z,6.15
2023-05-10T09:29:01.176Z,7.68
2023-05-10T09:31:47.804Z,6.78
2023-05-10T09:34:21.969Z,6.53
2023-05-10T09:36:53.031Z,6.85
2023-05-10T09:39:19.604Z,6.25
2023-05-10T09:41:45.968Z,5.82
2023-05-10T09:44:12.393Z,6.30
2023-05-10T09:46:39.018Z,5.32
2023-05-10T09:49:06.501Z,5.10
2023-05-10T09:51:35.058Z,4.72
2023-05-10T09:54:14.661Z,4.53
2023-05-10T09:56:42.056Z,4.90
2023-05-10T09:59:13.096Z,5.05
2023-05-10T10:01:40.299Z,4.20
2023-05-10T10:04:10.023Z,4.82
2023-05-10T10:06:40.856Z,4.82
2023-05-10T10:09:08.447Z,4.72
2023-05-10T10:11:37.304Z,4.53
2023-05-10T10:14:03.847Z,4.63
2023-05-10T10:16:31.440Z,5.05
2023-05-10T10:18:58.450Z,4.97
2023-05-10T10:21:26.087Z,5.50
2023-05-10T10:23:52.694Z,4.85
2023-05-10T10:26:23.757Z,4.90
2023-05-10T10:29:03.921Z,5.72
2023-05-10T10:31:48.270Z,5.53
2023-05-10T10:34:41.480Z,6.03
2023-05-10T10:37:08.097Z,5.82
2023-05-10T10:39:37.615Z,6.07
2023-05-10T10:42:05.597Z,6.70
2023-05-10T10:44:34.461Z,6.60
2023-05-10T10:47:14.140Z,5.85
2023-05-10T10:49:58.601Z,5.55
2023-05-10T10:52:39.273Z,5.32
2023-05-10T10:55:13.650Z,4.80
2023-05-10T10:57:48.510Z,5.45
2023-05-10T11:00:29.329Z,5.30
2023-05-10T11:03:03.527Z,5.88
2023-05-10T11:05:30.046Z,4.65
2023-05-10T11:07:58.486Z,5.10
2023-05-10T11:10:25.813Z,4.80
2023-05-10T11:13:02.099Z,4.75
2023-05-10T11:15:36.725Z,4.85
2023-05-10T11:18:29.595Z,4.65
2023-05-10T11:21:03.611Z,4.88
2023-05-10T11:23:49.118Z,4.68
2023-05-10T11:26:16.359Z,4.90
2023-05-10T11:28:47.191Z,4.88
2023-05-10T11:31:18.934Z,4.38
2023-05-10T11:33:45.985Z,4.40
2023-05-10T11:36:17.807Z,4.07
2023-05-10T11:38:44.620Z,4.60
2023-05-10T11:41:13.248Z,4.40
2023-05-10T11:43:41.026Z,4.15
2023-05-10T11:46:10.500Z,4.25
2023-05-10T11:48:37.699Z,4.32
2023-05-10T11:51:04.192Z,4.03
2023-05-10T11:53:32.865Z,3.70
2023-05-10T11:56:07.497Z,3.38
2023-05-10T11:58:34.824Z,3.80
2023-05-10T12:01:01.703Z,3.65
2023-05-10T12:03:29.183Z,3.92
2023-05-10T12:05:56.994Z,3.85
2023-05-10T12:08:25.887Z,3.80
2023-05-10T12:10:53.125Z,3.95
2023-05-10T12:13:21.452Z,4.20
2023-05-10T12:15:49.038Z,3.10
2023-05-10T12:18:16.079Z,3.05
2023-05-10T12:20:42.609Z,3.08
2023-05-10T12:23:10.870Z,3.08
2023-05-10T12:25:38.778Z,3.92
2023-05-10T12:28:10.018Z,2.85
2023-05-10T12:30:37.405Z,3.40
2023-05-10T12:33:16.076Z,3.60
2023-05-10T12:35:48.434Z,3.15
2023-05-10T12:38:35.509Z,3.60
2023-05-10T12:41:10.873Z,3.75
2023-05-10T12:43:38.143Z,3.10
2023-05-10T12:46:09.307Z,2.85
2023-05-10T12:48:37.255Z,3.05
2023-05-10T12:51:04.688Z,3.00
2023-05-10T12:53:31.367Z,3.17
2023-05-10T12:55:58.251Z,3.85
2023-05-10T12:58:34.933Z,2.30
2023-05-10T13:01:02.514Z,2.55
2023-05-10T13:03:28.909Z,2.55
2023-05-10T13:05:55.561Z,2.10
2023-05-10T13:08:22.004Z,2.20
2023-05-10T13:10:48.708Z,2.08
2023-05-10T13:13:16.062Z,2.95
2023-05-10T13:15:42.647Z,3.95
2023-05-10T13:18:09.283Z,4.50
2023-05-10T13:20:35.980Z,4.25
2023-05-10T13:23:03.504Z,4.93
2023-05-10T13:25:30.118Z,5.65
2023-05-10T13:27:56.459Z,5.20
2023-05-10T13:30:23.058Z,5.32
2023-05-10T13:32:49.480Z,4.70
2023-05-10T13:35:16.491Z,4.97
2023-05-10T13:37:42.944Z,4.57
2023-05-10T13:40:09.633Z,5.35
2023-05-10T13:42:36.017Z,5.05
2023-05-10T13:45:02.752Z,4.45
2023-05-10T13:47:29.182Z,6.00
2023-05-10T13:49:55.588Z,5.82
2023-05-10T13:52:22.115Z,5.60
2023-05-10T13:54:48.569Z,5.82
2023-05-10T13:57:15.045Z,6.20
2023-05-10T13:59:41.418Z,5.18
2023-05-10T14:02:07.805Z,6.85
2023-05-10T14:04:36.313Z,6.20
2023-05-10T14:07:02.864Z,5.63
2023-05-10T14:09:29.265Z,5.70
2023-05-10T14:11:56.802Z,7.00
2023-05-10T14:14:23.153Z,6.40
2023-05-10T14:16:49.692Z,6.05
2023-05-10T14:19:16.255Z,6.18
2023-05-10T14:21:42.662Z,6.05
2023-05-10T14:24:10.108Z,6.68
2023-05-10T14:26:36.618Z,6.35
2023-05-10T14:29:03.218Z,6.15
2023-05-10T14:31:31.206Z,6.28
2023-05-10T14:33:58.651Z,5.97
2023-05-10T14:36:27.327Z,6.55
2023-05-10T14:38:53.701Z,6.00
2023-05-10T14:41:20.221Z,6.80
2023-05-10T14:43:46.920Z,6.78
2023-05-10T14:46:13.686Z,6.97
2023-05-10T14:48:40.327Z,6.70
2023-05-10T14:51:07.374Z,6.72
2023-05-10T14:53:33.810Z,6.72
2023-05-10T14:56:03.880Z,7.43
2023-05-10T14:58:34.018Z,7.53
2023-05-10T15:01:00.834Z,6.90
2023-05-10T15:03:27.924Z,7.50
2023-05-10T15:05:54.870Z,7.57
2023-05-10T15:08:21.643Z,7.22
2023-05-10T15:10:48.585Z,7.03
2023-05-10T15:13:15.169Z,7.47
2023-05-10T15:15:41.649Z,6.80
2023-05-10T15:18:08.104Z,7.63
2023-05-10T15:20:34.653Z,7.95
2023-05-10T15:23:01.544Z,8.15
2023-05-10T15:25:28.668Z,7.72
2023-05-10T15:27:55.350Z,8.57
2023-05-10T15:30:22.247Z,7.53
2023-05-10T15:32:48.599Z,7.30
2023-05-10T15:35:15.412Z,7.07
2023-05-10T15:37:41.902Z,7.72
2023-05-10T15:40:08.678Z,7.88
2023-05-10T15:42:35.172Z,7.97
2023-05-10T15:45:01.625Z,7.40
2023-05-10T15:47:31.156Z,7.70
2023-05-10T15:49:57.549Z,7.30
2023-05-10T15:52:24.319Z,7.70
2023-05-10T15:54:51.236Z,6.28
2023-05-10T15:57:17.781Z,7.32
2023-05-10T15:59:44.281Z,6.85
2023-05-10T16:02:13.276Z,8.73
2023-05-10T16:04:39.697Z,6.15
2023-05-10T16:07:06.187Z,6.70
2023-05-10T16:09:32.658Z,6.38
2023-05-10T16:11:59.056Z,6.55
2023-05-10T16:14:25.460Z,6.60
2023-05-10T16:16:52.227Z,5.55
2023-05-10T16:19:18.997Z,5.93
2023-05-10T16:21:45.483Z,5.75
2023-05-10T16:24:12.116Z,6.25
2023-05-10T16:26:40.977Z,5.57
2023-05-10T16:29:10.494Z,5.85
2023-05-10T16:31:36.961Z,6.03
2023-05-10T16:34:03.445Z,5.68
2023-05-10T16:36:31.157Z,5.43
2023-05-10T16:38:57.557Z,6.55
2023-05-10T16:41:23.988Z,5.90
2023-05-10T16:43:50.458Z,5.75
2023-05-10T16:46:17.092Z,5.53
2023-05-10T16:48:43.829Z,5.93
2023-05-10T16:51:10.226Z,5.40
2023-05-10T16:53:36.614Z,5.28
2023-05-10T16:56:04.275Z,4.65
2023-05-10T16:58:30.752Z,4.80
2023-05-10T17:00:57.205Z,4.38
2023-05-10T17:03:23.704Z,4.65
2023-05-10T17:05:50.478Z,4.55
2023-05-10T17:08:17.143Z,3.88
2023-05-10T17:10:43.666Z,3.45
2023-05-10T17:13:10.859Z,3.65
2023-05-10T17:15:38.553Z,3.42
2023-05-10T17:18:05.453Z,3.40
2023-05-10T17:20:31.953Z,3.08
2023-05-10T17:22:58.488Z,3.10
2023-05-10T17:25:25.019Z,3.30
2023-05-10T17:27:51.439Z,3.67
2023-05-10T17:30:22.582Z,3.60
2023-05-10T17:32:49.264Z,3.72
2023-05-10T17:35:16.243Z,3.55
2023-05-10T17:37:44.135Z,3.90
2023-05-10T17:40:11.454Z,3.67
2023-05-10T17:42:37.915Z,4.00
2023-05-10T17:45:04.887Z,3.40
2023-05-10T17:47:31.396Z,3.83
2023-05-10T17:49:57.787Z,3.80
2023-05-10T17:52:24.166Z,4.57
2023-05-10T17:54:50.580Z,3.70
2023-05-10T17:57:17.294Z,4.97
2023-05-10T17:59:43.736Z,5.60
2023-05-10T18:02:10.306Z,5.03
2023-05-10T18:04:39.839Z,5.55
2023-05-10T18:07:06.680Z,5.07
2023-05-10T18:09:34.093Z,5.40
2023-05-10T18:12:03.981Z,5.10
2023-05-10T18:14:39.758Z,5.15
2023-05-10T18:17:08.384Z,5.60
2023-05-10T18:19:34.932Z,5.80
2023-05-10T18:22:01.321Z,6.20
2023-05-10T18:24:39.277Z,5.72
2023-05-10T18:27:08.738Z,6.18
2023-05-10T18:29:36.257Z,5.65
2023-05-10T18:32:02.854Z,6.03
2023-05-10T18:34:29.314Z,6.28
2023-05-10T18:36:56.255Z,6.22
2023-05-10T18:39:22.770Z,7.07
2023-05-10T18:41:50.141Z,6.20
2023-05-10T18:44:16.713Z,6.82
2023-05-10T18:46:43.401Z,6.72
2023-05-10T18:49:09.981Z,6.20
2023-05-10T18:51:36.548Z,6.40
2023-05-10T18:54:03.506Z,6.50
2023-05-10T18:56:30.038Z,6.10
2023-05-10T18:58:56.568Z,5.97
2023-05-10T19:01:22.998Z,5.88
2023-05-10T19:03:49.423Z,6.32
2023-05-10T19:06:15.914Z,6.53
2023-05-10T19:08:42.392Z,6.65
2023-05-10T19:11:09.070Z,6.57
2023-05-10T19:13:35.598Z,7.50
2023-05-10T19:16:15.958Z,6.78
2023-05-10T19:18:44.073Z,6.40
2023-05-10T19:21:11.452Z,6.90
2023-05-10T19:23:40.306Z,6.65
2023-05-10T19:26:07.115Z,6.95
2023-05-10T19:28:34.901Z,8.25
2023-05-10T19:31:01.717Z,8.40
2023-05-10T19:33:28.707Z,8.50
2023-05-10T19:35:55.553Z,8.05
2023-05-10T19:38:23.159Z,7.55
2023-05-10T19:40:58.139Z,7.35
2023-05-10T19:43:25.954Z,8.10
2023-05-10T19:45:52.859Z,7.25
2023-05-10T19:48:19.349Z,7.63
2023-05-10T19:50:45.892Z,6.72
2023-05-10T19:53:12.432Z,7.13
2023-05-10T19:55:39.028Z,7.90
2023-05-10T19:58:05.719Z,7.70
2023-05-10T20:00:32.248Z,7.75
2023-05-10T20:02:58.829Z,7.85
2023-05-10T20:05:25.614Z,8.73
2023-05-10T20:07:52.145Z,8.68
2023-05-10T20:10:19.055Z,8.63
2023-05-10T20:12:51.277Z,8.25
2023-05-10T20:15:20.095Z,8.35
2023-05-10T20:17:47.497Z,9.02
2023-05-10T20:20:15.837Z,7.78
2023-05-10T20:22:45.207Z,9.10
2023-05-10T20:25:12.377Z,9.30
2023-05-10T20:27:38.973Z,8.80
2023-05-10T20:30:06.250Z,9.05
2023-05-10T20:32:33.100Z,9.30
2023-05-10T20:34:59.989Z,8.68
2023-05-10T20:37:28.039Z,8.68
2023-05-10T20:39:55.000Z,7.70
2023-05-10T20:42:22.362Z,8.73
2023-05-10T20:44:49.367Z,8.45
2023-05-10T20:47:16.253Z,8.05
2023-05-10T20:49:42.977Z,7.97
2023-05-10T20:52:09.769Z,7.95
2023-05-10T20:54:36.186Z,8.68
2023-05-10T20:57:02.893Z,7.78
2023-05-10T20:59:29.400Z,8.52
2023-05-10T21:01:57.308Z,8.48
2023-05-10T21:04:24.592Z,7.78
2023-05-10T21:06:51.436Z,7.57
2023-05-10T21:09:17.926Z,8.80
2023-05-10T21:11:44.418Z,8.27
2023-05-10T21:14:10.935Z,8.25
2023-05-10T21:16:37.580Z,8.15
2023-05-10T21:19:04.128Z,8.00
2023-05-10T21:21:31.041Z,8.45
2023-05-10T21:23:57.507Z,8.02
2023-05-10T21:26:24.215Z,8.90
2023-05-10T21:28:50.658Z,8.13
2023-05-10T21:31:17.195Z,7.95
2023-05-10T21:33:43.756Z,8.02
2023-05-10T21:36:10.468Z,8.57
2023-05-10T21:38:36.986Z,8.00
2023-05-10T21:41:07.856Z,8.65
2023-05-10T21:46:01.013Z,8.13
2023-05-10T21:48:27.543Z,7.88
2023-05-10T21:50:53.981Z,8.60
2023-05-10T21:53:20.601Z,7.70
2023-05-10T21:55:48.115Z,8.32
2023-05-10T21:58:14.618Z,8.30
2023-05-10T22:00:41.018Z,7.75
2023-05-10T22:03:07.470Z,8.27
2023-05-10T22:05:34.311Z,7.85
2023-05-10T22:08:00.980Z,8.48
2023-05-10T22:10:27.546Z,8.25
2023-05-10T22:12:53.997Z,8.48
2023-05-10T22:15:20.511Z,8.40
2023-05-10T22:17:47.001Z,7.78
2023-05-10T22:20:13.795Z,8.00
2023-05-10T22:22:40.289Z,8.80
2023-05-10T22:25:07.751Z,7.57
2023-05-10T22:27:34.560Z,8.57
2023-05-10T22:30:01.530Z,8.30
2023-05-10T22:32:28.391Z,8.27
2023-05-10T22:34:55.087Z,7.75
2023-05-10T22:37:21.527Z,8.25
2023-05-10T22:39:48.561Z,8.70
2023-05-10T22:42:15.247Z,8.27
2023-05-10T22:44:42.741Z,8.20
2023-05-10T22:47:09.411Z,8.88
2023-05-10T22:49:36.114Z,8.55
2023-05-10T22:52:02.776Z,9.23
2023-05-10T22:54:29.217Z,8.63
2023-05-10T22:56:56.501Z,8.95
2023-05-10T22:59:23.401Z,9.23
2023-05-10T23:01:50.095Z,8.93
2023-05-10T23:04:16.576Z,9.68
2023-05-10T23:06:43.174Z,8.98
2023-05-10T23:09:09.723Z,8.88
2023-05-10T23:11:36.141Z,9.48
2023-05-10T23:14:02.734Z,10.02
2023-05-10T23:16:29.546Z,10.90
2023-05-10T23:18:56.156Z,10.38
2023-05-10T23:21:22.715Z,8.95
2023-05-10T23:23:49.330Z,11.13
2023-05-10T23:26:16.256Z,9.88
2023-05-10T23:28:42.655Z,10.18
2023-05-10T23:31:09.192Z,10.77
2023-05-10T23:33:35.668Z,10.10
2023-05-10T23:36:02.195Z,10.93
2023-05-10T23:38:28.673Z,10.75
2023-05-10T23:40:55.117Z,10.38
2023-05-10T23:43:21.832Z,10.73
2023-05-10T23:45:55.221Z,11.30
2023-05-10T23:48:21.858Z,10.77
2023-05-10T23:50:48.469Z,9.77
2023-05-10T23:53:15.286Z,10.20
2023-05-10T23:55:42.287Z,10.68
2023-05-10T23:58:08.767Z,10.57
